Time;durP1;ratioP1;P1;durP2;ratioP2;P2;SDS_P1;SDS_P2;PMS_P1;PMS_P2;Temp;Humidity;BMP_temperature;BMP_pressure;BME280_temperature;BME280_humidity;BME280_pressure;Samples;Min_cycle;Max_cycle;Signal;HPM_P1;HPM_P2
2021/09/29 00:01:59;;;;;;;13.15;9.45;;;;;;;21.03;100.00;96472.22;4985912;28;20502;-59
2021/09/29 00:04:28;;;;;;;10.63;9.38;;;;;;;20.94;100.00;96463.56;4992278;28;20611;-60
2021/09/29 00:06:56;;;;;;;11.00;9.10;;;;;;;21.02;100.00;96474.06;4994788;28;20077;-60
2021/09/29 00:09:25;;;;;;;11.65;9.70;;;;;;;21.07;100.00;96468.91;4986883;28;20070;-59
2021/09/29 00:11:54;;;;;;;12.00;9.73;;;;;;;21.00;100.00;96472.66;4994534;28;20528;-60
2021/09/29 00:14:22;;;;;;;17.33;9.88;;;;;;;20.69;100.00;96470.66;4993232;28;20077;-59
2021/09/29 00:16:51;;;;;;;13.25;10.00;;;;;;;20.29;100.00;96475.97;4989949;28;20082;-60
2021/09/29 00:19:21;;;;;;;12.25;10.63;;;;;;;20.59;100.00;96477.25;4992479;28;20085;-60
2021/09/29 00:21:49;;;;;;;14.80;10.63;;;;;;;20.54;100.00;96471.69;4990828;28;20450;-60
2021/09/29 00:24:18;;;;;;;12.18;10.82;;;;;;;21.02;100.00;96470.56;4989349;28;20104;-60
2021/09/29 00:26:46;;;;;;;13.85;10.32;;;;;;;20.84;100.00;96473.91;4994247;28;20069;-60
2021/09/29 00:29:14;;;;;;;13.48;11.30;;;;;;;20.66;100.00;96471.88;4995816;28;20536;-60
2021/09/29 00:31:43;;;;;;;13.30;10.57;;;;;;;20.89;100.00;96465.22;4987521;28;20555;-60
2021/09/29 00:34:13;;;;;;;14.68;11.32;;;;;;;20.85;100.00;96467.50;4994912;28;20104;-59
2021/09/29 00:36:45;;;;;;;12.07;10.77;;;;;;;21.20;100.00;96445.78;4993138;28;20050;-60
2021/09/29 00:39:14;;;;;;;12.70;10.77;;;;;;;21.16;100.00;96450.72;4997692;28;20077;-59
2021/09/29 00:41:45;;;;;;;12.90;11.30;;;;;;;21.17;100.00;96456.94;4989919;28;20520;-59
2021/09/29 00:44:13;;;;;;;12.23;10.85;;;;;;;21.11;100.00;96463.94;4990885;28;20073;-61
2021/09/29 00:46:42;;;;;;;13.90;10.60;;;;;;;20.58;100.00;96464.88;4989909;28;20092;-60
2021/09/29 00:49:12;;;;;;;12.88;11.35;;;;;;;20.41;100.00;96465.47;4998399;28;20082;-60
2021/09/29 00:51:42;;;;;;;15.13;11.48;;;;;;;20.22;100.00;96459.06;4989719;28;20520;-59
2021/09/29 00:54:10;;;;;;;13.30;11.35;;;;;;;20.74;100.00;96452.06;4996692;28;20073;-60
2021/09/29 00:56:39;;;;;;;13.18;11.50;;;;;;;20.51;100.00;96464.06;4988508;28;20070;-60
2021/09/29 00:59:07;;;;;;;15.15;11.63;;;;;;;20.86;100.00;96461.13;4995180;28;20439;-65
2021/09/29 01:01:37;;;;;;;15.77;12.05;;;;;;;20.85;100.00;96451.41;4993267;28;20076;-59
2021/09/29 01:04:05;;;;;;;14.63;11.77;;;;;;;20.78;100.00;96453.28;4987843;28;20325;-59
2021/09/29 01:06:37;;;;;;;21.75;11.60;;;;;;;20.77;100.00;96449.78;4989650;28;20066;-60
2021/09/29 01:09:13;;;;;;;15.32;11.70;;;;;;;20.78;100.00;96447.94;4991907;28;20061;-60
2021/09/29 01:11:52;;;;;;;16.52;12.07;;;;;;;20.88;100.00;96452.88;4988402;28;20042;-61
2021/09/29 01:14:27;;;;;;;14.25;11.68;;;;;;;20.98;100.00;96445.22;4990883;28;20572;-57
2021/09/29 01:16:58;;;;;;;15.20;11.88;;;;;;;21.01;100.00;96436.75;4992311;28;20084;-60
2021/09/29 01:19:38;;;;;;;16.55;12.15;;;;;;;21.05;100.00;96428.06;4992075;28;20062;-60
2021/09/29 01:22:10;;;;;;;14.35;11.75;;;;;;;20.98;100.00;96446.03;4985723;28;20395;-61
2021/09/29 01:24:45;;;;;;;16.70;12.38;;;;;;;20.81;100.00;96444.84;4992746;28;20077;-57
2021/09/29 01:27:15;;;;;;;14.07;11.55;;;;;;;20.40;100.00;96456.59;4991950;28;20421;-60
2021/09/29 01:29:43;;;;;;;;;;;;;;;20.04;100.00;96451.66;4992467;28;20573;-60
2021/09/29 01:32:12;;;;;;;13.90;11.25;;;;;;;20.10;100.00;96458.88;4991014;28;19964;-59
2021/09/29 01:34:41;;;;;;;15.18;11.45;;;;;;;19.70;100.00;96457.97;4992322;28;20083;-60
2021/09/29 01:37:11;;;;;;;14.57;11.35;;;;;;;20.24;100.00;96447.13;4991986;28;20069;-60
2021/09/29 01:39:39;;;;;;;16.85;12.30;;;;;;;20.18;100.00;96452.50;5020080;28;20504;-60
2021/09/29 01:42:08;;;;;;;13.80;12.05;;;;;;;20.06;100.00;96461.13;4987017;28;20528;-60
2021/09/29 01:44:38;;;;;;;16.45;12.15;;;;;;;20.04;100.00;96451.66;4988202;28;20069;-58
2021/09/29 01:47:09;;;;;;;15.95;12.07;;;;;;;20.06;100.00;96454.94;4987916;28;20066;-60
2021/09/29 01:49:42;;;;;;;14.02;12.30;;;;;;;20.15;100.00;96461.75;4989652;28;20097;-53
2021/09/29 01:52:11;;;;;;;15.65;12.30;;;;;;;20.19;100.00;96460.31;4991292;28;20069;-60
2021/09/29 01:54:46;;;;;;;16.10;12.35;;;;;;;20.11;100.00;96453.28;4991952;28;20073;-59
2021/09/29 01:57:15;;;;;;;15.88;11.98;;;;;;;20.21;100.00;96460.94;4986791;28;20472;-61
2021/09/29 01:59:47;;;;;;;14.57;11.68;;;;;;;20.06;100.00;96460.28;4989857;28;20073;-60
2021/09/29 02:02:16;;;;;;;16.08;12.30;;;;;;;20.10;100.00;96465.03;4991925;28;20088;-59
2021/09/29 02:04:45;;;;;;;14.68;12.20;;;;;;;19.85;100.00;96464.78;4985899;28;20077;-59
2021/09/29 02:07:13;;;;;;;14.93;12.45;;;;;;;19.53;100.00;96466.31;4990620;28;20100;-59
2021/09/29 02:09:42;;;;;;;15.15;12.25;;;;;;;19.39;100.00;96469.97;4988494;28;20074;-60
2021/09/29 02:12:11;;;;;;;14.30;11.90;;;;;;;19.16;100.00;96470.25;5002225;28;20070;-59
2021/09/29 02:14:40;;;;;;;18.30;12.35;;;;;;;19.36;100.00;96473.03;4984492;28;20093;-58
2021/09/29 02:17:10;;;;;;;15.65;13.27;;;;;;;19.06;100.00;96475.97;4980539;28;20054;-57
2021/09/29 02:19:38;;;;;;;16.23;13.50;;;;;;;19.01;100.00;96482.94;4984820;28;20078;-58
2021/09/29 02:22:07;;;;;;;16.85;13.48;;;;;;;19.18;100.00;96484.28;4987499;28;20084;-59
2021/09/29 02:24:36;;;;;;;18.85;13.35;;;;;;;19.09;100.00;96480.91;4987923;28;20070;-59
2021/09/29 02:27:05;;;;;;;19.95;12.98;;;;;;;19.02;100.00;96495.28;4997836;28;20203;-60
2021/09/29 02:29:34;;;;;;;18.25;13.45;;;;;;;18.80;100.00;96497.22;4993900;28;20065;-60
2021/09/29 02:32:02;;;;;;;16.40;13.05;;;;;;;18.64;100.00;96508.97;4987259;28;20097;-60
2021/09/29 02:34:33;;;;;;;16.48;12.98;;;;;;;18.63;100.00;96508.16;4996761;28;20070;-60
2021/09/29 02:37:01;;;;;;;19.48;13.75;;;;;;;18.34;100.00;96509.16;4991420;28;20523;-59
2021/09/29 02:39:29;;;;;;;16.50;13.80;;;;;;;18.65;100.00;96503.44;4988960;28;20491;-60
2021/09/29 02:41:58;;;;;;;18.38;14.80;;;;;;;19.12;100.00;96506.44;4988708;28;20562;-59
2021/09/29 02:44:26;;;;;;;21.85;14.77;;;;;;;18.79;100.00;96501.72;4993864;28;20134;-59
2021/09/29 02:46:55;;;;;;;20.95;15.50;;;;;;;18.48;100.00;96505.56;4987450;28;20096;-59
2021/09/29 02:49:23;;;;;;;19.95;15.05;;;;;;;18.68;100.00;96504.88;4989403;28;20103;-58
2021/09/29 02:51:53;;;;;;;19.73;15.65;;;;;;;18.80;100.00;96507.91;4990979;28;20077;-60
2021/09/29 02:54:22;;;;;;;23.27;15.77;;;;;;;19.08;100.00;96502.53;4990204;28;20069;-60
2021/09/29 02:56:51;;;;;;;19.00;15.40;;;;;;;18.96;100.00;96513.75;4987313;28;20062;-60
2021/09/29 02:59:19;;;;;;;22.48;16.35;;;;;;;18.98;100.00;96511.69;4986567;28;20070;-59
2021/09/29 03:01:48;;;;;;;22.30;16.40;;;;;;;18.71;100.00;96524.06;4991260;28;20066;-59
2021/09/29 03:04:16;;;;;;;22.75;16.65;;;;;;;19.85;100.00;96514.81;4989681;28;20073;-59
2021/09/29 03:06:45;;;;;;;21.92;16.38;;;;;;;19.70;100.00;96524.84;4986620;28;20073;-60
2021/09/29 03:09:15;;;;;;;20.85;17.05;;;;;;;19.71;100.00;96521.97;4987555;28;20073;-60
2021/09/29 03:11:44;;;;;;;22.70;16.17;;;;;;;20.10;100.00;96526.63;4993368;28;20088;-59
2021/09/29 03:14:12;;;;;;;22.75;16.25;;;;;;;19.42;100.00;96539.94;4991128;28;20066;-60
2021/09/29 03:16:41;;;;;;;19.25;15.95;;;;;;;19.16;100.00;96543.28;4989419;28;20082;-59
2021/09/29 03:19:10;;;;;;;19.75;16.63;;;;;;;19.64;100.00;96547.88;4985526;28;20085;-59
2021/09/29 03:21:38;;;;;;;21.50;16.20;;;;;;;19.50;100.00;96549.63;4985040;28;20076;-58
2021/09/29 03:24:07;;;;;;;23.38;17.27;;;;;;;19.71;100.00;96550.56;4984557;28;20070;-59
2021/09/29 03:26:36;;;;;;;21.88;16.83;;;;;;;19.16;100.00;96553.13;4994407;28;20513;-59
2021/09/29 03:29:05;;;;;;;23.23;17.30;;;;;;;19.15;100.00;96544.28;4984229;28;20076;-57
2021/09/29 03:31:33;;;;;;;23.23;17.70;;;;;;;19.85;100.00;96553.09;4985260;28;20104;-58
2021/09/29 03:34:02;;;;;;;22.15;16.70;;;;;;;19.67;100.00;96545.63;4984161;28;20251;-60
2021/09/29 03:36:30;;;;;;;23.98;18.48;;;;;;;18.83;100.00;96550.25;4983371;28;20084;-58
2021/09/29 03:39:00;;;;;;;22.67;18.10;;;;;;;19.32;100.00;96557.34;4982086;28;20069;-59
2021/09/29 03:41:29;;;;;;;23.92;18.15;;;;;;;19.51;100.00;96550.44;4982427;28;20084;-59
2021/09/29 03:43:59;;;;;;;23.67;18.42;;;;;;;19.59;100.00;96551.13;4983233;28;20140;-60
2021/09/29 03:46:27;;;;;;;24.52;17.95;;;;;;;19.17;100.00;96558.31;4992641;28;20080;-58
2021/09/29 03:48:56;;;;;;;24.15;18.02;;;;;;;19.59;100.00;96548.44;4984570;28;20069;-59
2021/09/29 03:51:24;;;;;;;27.95;19.58;;;;;;;19.65;100.00;96547.69;4984507;28;20077;-58
2021/09/29 03:53:53;;;;;;;27.45;20.42;;;;;;;19.95;100.00;96544.69;4982365;28;20077;-60
2021/09/29 03:56:21;;;;;;;27.70;21.45;;;;;;;19.88;100.00;96535.81;4985502;28;20073;-60
2021/09/29 03:58:50;;;;;;;30.25;21.48;;;;;;;19.90;100.00;96544.47;4986233;28;20070;-59
2021/09/29 04:01:20;;;;;;;29.38;20.73;;;;;;;20.02;100.00;96542.03;5002208;28;20132;-59
2021/09/29 04:03:48;;;;;;;29.85;21.48;;;;;;;19.76;100.00;96535.59;4983562;28;20065;-60
2021/09/29 04:06:17;;;;;;;28.55;21.27;;;;;;;20.27;100.00;96537.78;4984899;28;20074;-60
2021/09/29 04:08:45;;;;;;;28.73;22.45;;;;;;;19.95;100.00;96560.75;4985263;28;20559;-58
2021/09/29 04:11:14;;;;;;;32.40;23.15;;;;;;;20.04;100.00;96548.84;4984954;28;20065;-60
2021/09/29 04:13:42;;;;;;;31.98;23.38;;;;;;;20.25;100.00;96547.03;4983589;28;20077;-58
2021/09/29 04:16:11;;;;;;;32.75;23.30;;;;;;;19.61;100.00;96554.44;4987441;28;20153;-60
2021/09/29 04:18:41;;;;;;;35.50;23.98;;;;;;;19.85;100.00;96538.88;4984877;28;20078;-59
2021/09/29 04:21:11;;;;;;;31.92;23.35;;;;;;;20.06;100.00;96544.13;4983193;28;20066;-57
2021/09/29 04:23:40;;;;;;;31.58;24.10;;;;;;;19.57;100.00;96547.81;4985903;28;20070;-56
2021/09/29 04:26:08;;;;;;;33.00;23.05;;;;;;;19.97;100.00;96552.53;4983513;28;20070;-60
2021/09/29 04:28:37;;;;;;;36.28;24.23;;;;;;;20.05;100.00;96547.00;4988533;28;20090;-53
2021/09/29 04:31:05;;;;;;;36.92;25.63;;;;;;;19.95;100.00;96544.69;4981134;28;20320;-59
2021/09/29 04:33:33;;;;;;;33.42;24.73;;;;;;;20.47;100.00;96542.31;4984411;28;20062;-58
2021/09/29 04:36:04;;;;;;;33.65;23.58;;;;;;;19.37;100.00;96545.06;4978363;28;20066;-59
2021/09/29 04:38:33;;;;;;;35.13;25.17;;;;;;;19.70;100.00;96541.72;4985192;28;20062;-59
2021/09/29 04:41:01;;;;;;;36.88;25.58;;;;;;;19.44;100.00;96539.72;4984142;28;20602;-59
2021/09/29 04:43:30;;;;;;;37.58;25.20;;;;;;;19.34;100.00;96540.09;4986443;28;20078;-60
2021/09/29 04:45:58;;;;;;;37.97;26.40;;;;;;;19.47;100.00;96555.38;4988528;28;20082;-60
2021/09/29 04:48:27;;;;;;;34.40;24.88;;;;;;;18.89;100.00;96554.81;4990126;28;20062;-60
2021/09/29 04:50:56;;;;;;;34.95;22.65;;;;;;;18.56;100.00;96562.53;4990437;28;20536;-58
2021/09/29 04:53:25;;;;;;;35.90;25.23;;;;;;;18.97;100.00;96555.50;4992300;28;20069;-60
2021/09/29 04:55:58;;;;;;;34.63;24.08;;;;;;;18.78;100.00;96563.34;4993259;28;20085;-59
2021/09/29 04:58:26;;;;;;;38.78;22.83;;;;;;;18.63;100.00;96574.94;4990966;28;20080;-60
2021/09/29 05:00:55;;;;;;;36.00;24.38;;;;;;;19.02;100.00;96565.59;4987660;28;20097;-60
2021/09/29 05:03:24;;;;;;;30.13;20.03;;;;;;;18.40;100.00;96577.78;4988956;28;20085;-60
2021/09/29 05:05:53;;;;;;;33.53;23.90;;;;;;;18.96;100.00;96574.41;4993074;28;20910;-60
2021/09/29 05:08:26;;;;;;;31.38;22.88;;;;;;;19.04;100.00;96573.44;4990588;28;20070;-60
2021/09/29 05:11:00;;;;;;;35.42;23.67;;;;;;;18.86;100.00;96580.09;4986642;28;20084;-62
2021/09/29 05:13:30;;;;;;;35.03;23.85;;;;;;;19.28;100.00;96582.84;4983824;28;20077;-60
2021/09/29 05:15:59;;;;;;;35.25;25.23;;;;;;;18.79;100.00;96587.22;4987591;28;20078;-60
2021/09/29 05:18:28;;;;;;;37.58;23.98;;;;;;;18.69;100.00;96578.69;4987237;28;20070;-60
2021/09/29 05:20:57;;;;;;;35.10;23.88;;;;;;;19.38;100.00;96584.16;4987887;28;20065;-60
2021/09/29 05:23:25;;;;;;;36.85;25.10;;;;;;;19.72;100.00;96585.19;4984866;28;20054;-60
2021/09/29 05:25:54;;;;;;;34.47;22.98;;;;;;;19.50;100.00;96586.25;4987465;28;20472;-60
2021/09/29 05:28:27;;;;;;;34.00;23.33;;;;;;;19.66;100.00;96591.31;4987751;28;20078;-60
2021/09/29 05:30:56;;;;;;;36.88;25.33;;;;;;;19.61;100.00;96591.88;4981353;28;20138;-59
2021/09/29 05:33:24;;;;;;;36.50;24.73;;;;;;;19.82;100.00;96590.13;4981688;28;20829;-60
2021/09/29 05:35:53;;;;;;;28.92;21.88;;;;;;;19.89;100.00;96597.19;4982334;28;20073;-58
2021/09/29 05:38:21;;;;;;;34.60;22.58;;;;;;;20.08;100.00;96595.59;4987292;28;20065;-57
2021/09/29 05:40:50;;;;;;;33.05;22.52;;;;;;;19.90;100.00;96600.69;4984675;28;20126;-60
2021/09/29 05:43:18;;;;;;;31.65;22.50;;;;;;;19.77;100.00;96603.31;4984101;28;20097;-59
2021/09/29 05:45:48;;;;;;;31.27;21.38;;;;;;;19.73;100.00;96608.22;4983384;28;20058;-59
2021/09/29 05:48:16;;;;;;;31.85;21.25;;;;;;;19.56;100.00;96606.88;4982881;28;20077;-60
2021/09/29 05:50:45;;;;;;;35.50;22.33;;;;;;;19.88;100.00;96600.88;4984128;28;20078;-60
2021/09/29 05:53:13;;;;;;;29.73;20.23;;;;;;;20.15;100.00;96606.34;4985301;28;20058;-60
2021/09/29 05:55:42;;;;;;;33.95;21.70;;;;;;;19.74;100.00;96612.56;4984824;28;20078;-58
2021/09/29 05:58:10;;;;;;;29.20;20.90;;;;;;;20.24;100.00;96615.03;4984374;28;20086;-57
2021/09/29 06:00:39;;;;;;;28.80;20.67;;;;;;;20.51;100.00;96618.59;4987167;28;20070;-59
2021/09/29 06:03:09;;;;;;;27.73;18.23;;;;;;;19.37;100.00;96619.94;4980711;28;20082;-60
2021/09/29 06:05:38;;;;;;;23.95;15.38;;;;;;;18.81;100.00;96624.44;4980309;28;20512;-59
2021/09/29 06:08:06;;;;;;;20.05;15.07;;;;;;;18.95;100.00;96623.53;4987071;28;20124;-60
2021/09/29 06:10:35;;;;;;;22.25;14.50;;;;;;;19.02;100.00;96626.25;4988452;28;20054;-59
2021/09/29 06:13:03;;;;;;;20.55;15.18;;;;;;;20.08;100.00;96626.91;4982115;28;20240;-59
2021/09/29 06:15:33;;;;;;;21.88;16.20;;;;;;;20.71;100.00;96626.69;4981306;28;20066;-59
2021/09/29 06:18:03;;;;;;;22.95;16.42;;;;;;;20.40;100.00;96630.72;4986809;28;20441;-60
2021/09/29 06:20:35;;;;;;;21.02;15.18;;;;;;;19.69;100.00;96631.06;4980256;28;20061;-60
2021/09/29 06:23:05;;;;;;;21.00;15.45;;;;;;;20.46;100.00;96637.13;4987424;28;20069;-57
2021/09/29 06:25:33;;;;;;;20.88;15.15;;;;;;;20.64;100.00;96640.06;4984340;28;20508;-61
2021/09/29 06:28:02;;;;;;;19.30;13.88;;;;;;;19.85;100.00;96644.09;4983285;28;20062;-60
2021/09/29 06:30:30;;;;;;;18.00;12.98;;;;;;;19.52;100.00;96640.41;4983340;28;20430;-60
2021/09/29 06:32:59;;;;;;;20.42;13.77;;;;;;;19.68;100.00;96638.25;4984997;28;20058;-58
2021/09/29 06:35:29;;;;;;;19.10;13.45;;;;;;;20.21;100.00;96642.22;4985521;28;20065;-60
2021/09/29 06:38:00;;;;;;;18.60;12.63;;;;;;;19.73;100.00;96642.19;4981619;28;20073;-60
2021/09/29 06:40:29;;;;;;;18.17;13.02;;;;;;;20.42;100.00;96651.94;4983371;28;20501;-60
2021/09/29 06:42:58;;;;;;;19.05;13.27;;;;;;;20.37;100.00;96645.34;4985652;28;20076;-60
2021/09/29 06:45:27;;;;;;;16.00;11.73;;;;;;;19.88;100.00;96650.91;4986123;28;20071;-58
2021/09/29 06:47:55;;;;;;;16.50;12.35;;;;;;;20.32;100.00;96650.47;4981271;28;20073;-60
2021/09/29 06:50:24;;;;;;;15.90;11.98;;;;;;;20.25;100.00;96652.31;4985693;28;20104;-60
2021/09/29 06:52:59;;;;;;;16.27;11.40;;;;;;;19.98;100.00;96656.72;4979966;28;20077;-60
2021/09/29 06:55:28;;;;;;;15.73;11.23;;;;;;;20.39;100.00;96658.53;4988017;28;20084;-61
2021/09/29 06:57:56;;;;;;;17.63;11.93;;;;;;;20.61;100.00;96657.41;4979834;28;20066;-60
2021/09/29 07:00:26;;;;;;;16.63;11.82;;;;;;;21.29;100.00;96656.41;4984000;28;20517;-59
2021/09/29 07:02:54;;;;;;;13.25;11.15;;;;;;;20.89;100.00;96652.88;4981119;28;20065;-59
2021/09/29 07:05:24;;;;;;;14.25;11.00;;;;;;;20.38;100.00;96657.72;4979136;28;20058;-60
2021/09/29 07:07:56;;;;;;;13.70;11.30;;;;;;;20.53;100.00;96649.53;4981164;28;20086;-60
2021/09/29 07:10:27;;;;;;;15.07;10.40;;;;;;;20.29;100.00;96655.41;4988754;28;20477;-60
2021/09/29 07:12:57;;;;;;;15.32;10.77;;;;;;;20.28;100.00;96659.13;5013374;28;20065;-58
2021/09/29 07:15:27;;;;;;;14.88;10.30;;;;;;;20.89;100.00;96667.13;4986834;28;20071;-60
2021/09/29 07:17:58;;;;;;;13.98;10.30;;;;;;;20.80;100.00;96663.81;4984811;28;20069;-60
2021/09/29 07:20:27;;;;;;;14.93;10.70;;;;;;;20.98;100.00;96660.53;4982335;28;20069;-60
2021/09/29 07:22:57;;;;;;;14.63;10.02;;;;;;;21.17;100.00;96668.81;4985142;28;20103;-60
2021/09/29 07:25:30;;;;;;;12.30;9.80;;;;;;;20.92;100.00;96669.41;4988887;28;20065;-60
2021/09/29 07:27:59;;;;;;;13.85;9.75;;;;;;;21.06;100.00;96676.44;4982083;28;20085;-60
2021/09/29 07:30:28;;;;;;;13.77;9.80;;;;;;;20.60;100.00;96684.38;4978914;28;20073;-60
2021/09/29 07:32:58;;;;;;;12.90;10.25;;;;;;;21.81;100.00;96684.22;4976417;28;20085;-60
2021/09/29 07:35:26;;;;;;;15.18;10.35;;;;;;;22.16;100.00;96692.88;4983135;28;20108;-60
2021/09/29 07:37:54;;;;;;;10.07;8.20;;;;;;;20.06;100.00;96691.38;4984550;28;20533;-61
2021/09/29 07:40:23;;;;;;;13.93;9.30;;;;;;;20.25;100.00;96689.78;4986443;28;20078;-60
2021/09/29 07:42:53;;;;;;;10.35;7.63;;;;;;;20.14;100.00;96693.06;4982210;28;20073;-60
2021/09/29 07:45:21;;;;;;;13.07;6.45;;;;;;;19.93;100.00;96699.34;4983937;28;20073;-60
2021/09/29 07:47:50;;;;;;;7.95;6.57;;;;;;;20.43;100.00;96699.97;4984895;28;20073;-57
2021/09/29 07:50:19;;;;;;;6.82;5.50;;;;;;;20.20;100.00;96708.34;4984682;28;20470;-60
2021/09/29 07:52:48;;;;;;;10.05;5.65;;;;;;;20.19;100.00;96706.66;4980088;28;20082;-59
2021/09/29 07:55:17;;;;;;;6.97;4.45;;;;;;;19.81;100.00;96714.28;4988295;28;20074;-61
2021/09/29 07:57:47;;;;;;;6.17;3.37;;;;;;;19.55;100.00;96712.25;4979533;28;20058;-59
2021/09/29 08:00:18;;;;;;;5.10;3.33;;;;;;;19.85;100.00;96705.66;4980965;28;20062;-60
2021/09/29 08:02:47;;;;;;;7.15;3.20;;;;;;;19.52;100.00;96716.13;4981930;28;20078;-60
2021/09/29 08:05:17;;;;;;;3.92;2.80;;;;;;;19.13;100.00;96716.59;4973669;28;20085;-60
2021/09/29 08:07:49;;;;;;;5.07;2.50;;;;;;;19.58;100.00;96722.53;4985239;28;20084;-60
2021/09/29 08:10:19;;;;;;;4.38;2.72;;;;;;;19.99;100.00;96727.16;4986067;28;20531;-59
2021/09/29 08:12:53;;;;;;;4.35;2.40;;;;;;;19.55;100.00;96725.59;4981216;28;20563;-60
2021/09/29 08:15:23;;;;;;;7.15;2.50;;;;;;;19.70;100.00;96728.22;4976982;28;20438;-59
2021/09/29 08:17:55;;;;;;;5.03;2.58;;;;;;;19.40;100.00;96737.19;4985493;28;20069;-60
2021/09/29 08:20:26;;;;;;;4.85;2.33;;;;;;;19.72;100.00;96731.50;4986303;28;20066;-59
2021/09/29 08:23:00;;;;;;;3.22;2.20;;;;;;;19.30;100.00;96733.22;4987231;28;20093;-60
2021/09/29 08:25:45;;;;;;;3.58;2.30;;;;;;;19.15;100.00;96744.81;4985311;28;20105;-59
2021/09/29 08:28:25;;;;;;;3.63;1.83;;;;;;;19.31;100.00;96741.06;4989313;28;21357;-58
2021/09/29 08:31:01;;;;;;;4.28;2.35;;;;;;;19.12;100.00;96757.72;4983314;28;20068;-59
2021/09/29 08:33:47;;;;;;;6.47;2.53;;;;;;;19.42;100.00;96756.56;4988100;28;20073;-57
2021/09/29 08:36:22;;;;;;;7.30;2.35;;;;;;;20.08;100.00;96755.44;4987359;28;20066;-59
2021/09/29 08:38:54;;;;;;;4.43;2.20;;;;;;;19.22;100.00;96747.53;5020728;28;20084;-59
2021/09/29 08:41:36;;;;;;;3.70;2.28;;;;;;;19.34;100.00;96755.88;4987149;28;20070;-59
2021/09/29 08:44:09;;;;;;;3.47;2.50;;;;;;;19.76;100.00;96764.91;4999000;28;20042;-59
2021/09/29 08:46:55;;;;;;;5.53;2.50;;;;;;;20.08;100.00;96763.47;4985303;28;20413;-57
2021/09/29 08:49:35;;;;;;;3.03;2.40;;;;;;;19.64;100.00;96759.25;4989197;28;20078;-59
2021/09/29 08:52:18;;;;;;;2.55;2.35;;;;;;;19.70;100.00;96760.31;4981000;28;20283;-59
2021/09/29 08:54:57;;;;;;;2.88;2.45;;;;;;;20.18;100.00;96760.44;4987515;28;20085;-60
2021/09/29 09:16:58;;;;;;;3.03;1.90;;;;;;;20.17;94.42;96772.16;4984901;28;20081;-60
2021/09/29 09:19:29;;;;;;;4.20;2.50;;;;;;;20.82;88.80;96770.84;4987148;28;20085;-59
2021/09/29 09:22:00;;;;;;;3.28;2.28;;;;;;;20.43;99.13;96771.47;4985611;28;20057;-60
2021/09/29 09:24:30;;;;;;;3.40;2.30;;;;;;;20.76;95.03;96769.78;4988251;28;20712;-60
2021/09/29 09:27:00;;;;;;;4.07;2.17;;;;;;;20.23;93.42;96766.00;4984382;28;20067;-60
2021/09/29 09:29:28;;;;;;;2.78;1.80;;;;;;;20.37;93.13;96768.56;4981260;28;20066;-60
2021/09/29 09:32:07;;;;;;;4.03;1.90;;;;;;;20.26;90.93;96765.59;4983316;28;20082;-59
2021/09/29 09:34:37;;;;;;;4.35;2.10;;;;;;;20.23;92.04;96760.66;4988043;28;20123;-60
2021/09/29 09:37:08;;;;;;;3.55;1.90;;;;;;;20.60;90.62;96762.91;4986647;28;20321;-57
2021/09/29 09:39:37;;;;;;;4.18;1.90;;;;;;;20.96;89.15;96758.31;4983974;28;20085;-60
2021/09/29 09:42:08;;;;;;;4.25;1.90;;;;;;;21.10;85.31;96757.31;4983043;28;20078;-60
2021/09/29 09:44:40;;;;;;;3.75;2.03;;;;;;;20.09;96.15;96752.53;4984450;28;20121;-60
2021/09/29 09:47:11;;;;;;;3.08;2.13;;;;;;;20.53;88.12;96754.03;4981715;28;20073;-59
2021/09/29 09:49:49;;;;;;;5.10;1.70;;;;;;;20.38;87.62;96753.31;4984984;28;20088;-60
2021/09/29 09:52:27;;;;;;;2.78;2.00;;;;;;;20.61;85.57;96753.88;4989006;28;20082;-60
2021/09/29 09:55:03;;;;;;;1.95;1.60;;;;;;;20.26;88.96;96750.34;4985664;28;20066;-60
2021/09/29 09:57:33;;;;;;;2.40;1.58;;;;;;;20.18;84.55;96758.56;4985821;28;20505;-60
2021/09/29 10:00:02;;;;;;;2.53;1.75;;;;;;;20.77;87.31;96746.47;4979251;28;20039;-60
2021/09/29 10:02:39;;;;;;;3.55;1.70;;;;;;;20.58;87.91;96748.91;4984748;28;20112;-59
2021/09/29 10:05:10;;;;;;;4.28;2.03;;;;;;;20.91;85.37;96733.94;4981279;28;20069;-60
2021/09/29 10:07:39;;;;;;;1.30;1.20;;;;;;;20.21;80.53;96742.13;4986726;28;20066;-59
2021/09/29 10:10:14;;;;;;;3.90;1.80;;;;;;;21.52;74.71;96742.69;4982130;28;20066;-60
2021/09/29 10:13:02;;;;;;;2.63;1.60;;;;;;;21.66;75.40;96738.16;4984496;28;20745;-60
2021/09/29 10:24:09;;;;;;;3.22;1.40;;;;;;;21.32;60.17;96736.47;4983199;28;20062;-60
2021/09/29 10:26:36;;;;;;;3.42;1.55;;;;;;;21.21;59.91;96737.09;4986338;28;20069;-59
2021/09/29 10:29:06;;;;;;;3.05;1.40;;;;;;;21.91;61.43;96735.63;4981486;28;20469;-59
2021/09/29 10:31:55;;;;;;;1.88;1.30;;;;;;;20.50;66.16;96730.31;4984352;28;20082;-58
2021/09/29 10:34:29;;;;;;;3.20;1.35;;;;;;;21.54;61.20;96723.69;4984400;28;20731;-60
2021/09/29 10:37:16;;;;;;;2.67;1.27;;;;;;;21.59;62.17;96726.59;4986117;28;20689;-60
2021/09/29 10:42:50;;;;;;;5.05;1.50;;;;;;;22.07;62.00;96731.69;5012896;28;20070;-59
2021/09/29 10:45:40;;;;;;;3.55;1.25;;;;;;;21.90;58.61;96735.88;4975122;28;20101;-59
2021/09/29 10:48:28;;;;;;;3.55;1.50;;;;;;;21.95;56.66;96733.34;4985148;28;20185;-60
2021/09/29 10:51:20;;;;;;;4.20;1.30;;;;;;;22.34;56.92;96724.41;4985085;28;20061;-60
2021/09/29 11:03:17;;;;;;;3.08;1.10;;;;;;;21.72;54.04;96717.72;5005912;28;20208;-59
2021/09/29 11:06:17;;;;;;;2.40;1.23;;;;;;;22.59;53.70;96721.81;4983583;28;20073;-60
2021/09/29 11:28:59;;;;;;;3.88;1.45;;;;;;;22.02;55.12;96710.84;4981543;28;20089;-60
2021/09/29 11:31:30;;;;;;;3.33;1.27;;;;;;;23.30;53.41;96698.47;5012635;28;20076;-56
2021/09/29 11:34:03;;;;;;;1.55;1.10;;;;;;;23.40;50.42;96699.63;4986459;28;20085;-59
2021/09/29 11:36:57;;;;;;;3.50;1.27;;;;;;;23.16;49.99;96693.19;4983143;28;20082;-59
2021/09/29 11:39:47;;;;;;;1.65;1.17;;;;;;;23.60;50.62;96693.22;4998556;28;20062;-60
2021/09/29 12:08:03;;;;;;;1.58;0.90;;;;;;;22.80;47.65;96666.09;4988202;28;20065;-59
2021/09/29 12:10:32;;;;;;;2.67;0.88;;;;;;;22.69;49.18;96679.16;4985388;28;21447;-60
2021/09/29 12:13:05;;;;;;;3.60;1.25;;;;;;;22.80;49.04;96680.34;4985363;28;20062;-59
2021/09/29 12:15:44;;;;;;;3.95;1.20;;;;;;;22.67;49.93;96670.47;4990109;28;20054;-57
2021/09/29 12:18:14;;;;;;;5.55;1.65;;;;;;;23.17;49.78;96678.69;4983399;28;20428;-60
2021/09/29 12:20:51;;;;;;;4.20;1.20;;;;;;;22.77;50.97;96670.00;4986927;28;20066;-59
2021/09/29 12:23:21;;;;;;;2.85;0.90;;;;;;;22.46;50.42;96673.50;4989386;28;20934;-58
2021/09/29 12:25:53;;;;;;;2.03;1.00;;;;;;;22.64;51.10;96662.03;4990105;28;20090;-59
2021/09/29 12:28:56;;;;;;;2.67;1.08;;;;;;;22.80;51.88;96666.09;4986996;28;20424;-59
2021/09/29 12:31:45;;;;;;;2.45;1.00;;;;;;;22.31;52.23;96670.28;4981534;28;20097;-60
2021/09/29 12:34:27;;;;;;;3.15;0.90;;;;;;;22.16;55.73;96681.25;4986705;28;21273;-58
2021/09/29 12:36:56;;;;;;;3.05;1.17;;;;;;;22.95;52.63;96661.22;4985344;28;20540;-58
2021/09/29 12:39:28;;;;;;;3.30;1.23;;;;;;;23.17;54.55;96664.41;4981900;28;20078;-59
2021/09/29 12:41:57;;;;;;;2.03;1.00;;;;;;;22.23;54.15;96671.34;4983312;28;20504;-58
2021/09/29 12:44:25;;;;;;;1.55;1.02;;;;;;;22.13;53.35;96670.94;5015014;28;20066;-57
2021/09/29 12:47:03;;;;;;;1.48;1.10;;;;;;;21.91;55.10;96668.50;4986743;28;20551;-60
2021/09/29 12:49:33;;;;;;;1.55;0.90;;;;;;;23.11;53.04;96663.41;4990350;28;20057;-60
2021/09/29 12:52:10;;;;;;;3.13;1.20;;;;;;;22.69;51.98;96662.22;4981626;28;20070;-59
2021/09/29 12:54:46;;;;;;;5.00;1.25;;;;;;;23.52;50.94;96661.19;4982703;28;20150;-58
2021/09/29 12:57:15;;;;;;;2.92;1.10;;;;;;;23.22;52.93;96661.88;4988372;28;20070;-60
2021/09/29 12:59:43;;;;;;;1.48;1.02;;;;;;;22.34;54.42;96673.38;4986618;28;20038;-60
2021/09/29 13:02:11;;;;;;;2.58;1.00;;;;;;;22.55;56.56;96657.97;4986835;28;20057;-59